createdAt,value
2022-08-10T00:00:56.009Z,14.68
2022-08-10T00:03:22.615Z,14.72
2022-08-10T00:05:52.860Z,14.71
2022-08-10T00:08:22.644Z,14.73
2022-08-10T00:10:52.834Z,14.79
2022-08-10T00:13:19.671Z,14.79
2022-08-10T00:15:53.358Z,14.81
2022-08-10T00:18:35.997Z,14.86
2022-08-10T00:21:07.779Z,14.76
2022-08-10T00:23:37.403Z,14.71
2022-08-10T00:26:05.490Z,14.74
2022-08-10T00:28:32.145Z,14.70
2022-08-10T00:30:58.902Z,14.72
2022-08-10T00:33:25.417Z,14.67
2022-08-10T00:35:51.985Z,14.65
2022-08-10T00:38:18.499Z,14.62
2022-08-10T00:40:46.092Z,14.62
2022-08-10T00:43:12.556Z,14.63
2022-08-10T00:45:39.236Z,14.64
2022-08-10T00:48:05.969Z,14.60
2022-08-10T00:50:32.745Z,14.65
2022-08-10T00:52:59.377Z,14.64
2022-08-10T00:55:26.225Z,14.64
2022-08-10T00:57:55.212Z,14.60
2022-08-10T01:00:23.901Z,14.44
2022-08-10T01:02:50.720Z,14.39
2022-08-10T01:05:19.375Z,14.33
2022-08-10T01:07:56.930Z,14.21
2022-08-10T01:10:37.954Z,14.24
2022-08-10T01:13:10.554Z,14.19
2022-08-10T01:15:51.318Z,14.22
2022-08-10T01:18:26.555Z,14.16
2022-08-10T01:21:19.305Z,14.10
2022-08-10T01:23:59.976Z,14.09
2022-08-10T01:26:45.254Z,14.01
2022-08-10T01:29:37.547Z,14.04
2022-08-10T01:32:07.318Z,14.05
2022-08-10T01:34:51.124Z,14.08
2022-08-10T01:37:20.204Z,14.06
2022-08-10T01:39:51.954Z,14.01
2022-08-10T01:42:22.192Z,13.93
2022-08-10T01:44:54.713Z,13.74
2022-08-10T01:47:48.086Z,13.70
2022-08-10T01:50:59.502Z,13.74
2022-08-10T01:53:40.046Z,13.73
2022-08-10T01:56:11.879Z,13.62
2022-08-10T01:58:39.535Z,13.55
2022-08-10T02:01:09.630Z,13.59
2022-08-10T02:04:05.018Z,13.52
2022-08-10T02:06:28.007Z,13.53
2022-08-10T02:09:06.674Z,13.50
2022-08-10T02:12:05.300Z,13.53
2022-08-10T02:14:23.994Z,13.46
2022-08-10T02:16:52.580Z,13.42
2022-08-10T02:19:24.440Z,13.35
2022-08-10T02:22:36.625Z,13.33
2022-08-10T02:24:42.316Z,13.33
2022-08-10T02:27:10.068Z,13.32
2022-08-10T02:29:38.048Z,13.33
2022-08-10T02:32:11.058Z,13.27
2022-08-10T02:34:39.593Z,13.19
2022-08-10T02:37:11.105Z,13.26
2022-08-10T02:39:40.419Z,13.21
2022-08-10T02:45:13.342Z,13.15
2022-08-10T02:45:31.178Z,13.12
2022-08-10T02:48:16.342Z,13.01
2022-08-10T02:50:46.342Z,13.02
2022-08-10T02:53:55.333Z,13.11
2022-08-10T02:56:25.579Z,13.10
2022-08-10T02:59:08.737Z,13.15
2022-08-10T03:01:42.159Z,13.14
2022-08-10T03:04:19.502Z,13.18
2022-08-10T03:06:54.454Z,13.24
2022-08-10T03:09:22.747Z,13.19
2022-08-10T03:12:36.685Z,13.11
2022-08-10T03:14:38.872Z,13.02
2022-08-10T03:17:06.771Z,13.07
2022-08-10T03:20:34.626Z,13.04
2022-08-10T03:22:22.118Z,12.95
2022-08-10T03:24:49.997Z,12.91
2022-08-10T03:27:17.552Z,12.97
2022-08-10T03:30:28.729Z,13.03
2022-08-10T03:32:33.249Z,13.02
2022-08-10T03:35:00.262Z,12.93
2022-08-10T03:37:27.593Z,12.84
2022-08-10T03:39:55.409Z,12.88
2022-08-10T03:42:23.650Z,12.92
2022-08-10T03:44:52.550Z,12.89
2022-08-10T03:47:21.275Z,12.93
2022-08-10T03:49:50.398Z,13.00
2022-08-10T03:52:18.774Z,12.92
2022-08-10T03:54:47.280Z,12.89
2022-08-10T03:57:14.216Z,12.89
2022-08-10T03:59:40.812Z,12.85
2022-08-10T04:02:52.641Z,12.95
2022-08-10T04:04:54.991Z,12.88
2022-08-10T04:07:21.591Z,13.00
2022-08-10T04:09:54.963Z,12.98
2022-08-10T04:12:23.687Z,13.02
2022-08-10T04:14:52.994Z,13.10
2022-08-10T04:17:59.395Z,13.22
2022-08-10T04:20:23.961Z,13.24
2022-08-10T04:22:52.994Z,13.26
2022-08-10T04:25:22.620Z,13.25
2022-08-10T04:27:50.296Z,13.33
2022-08-10T04:30:17.491Z,13.33
2022-08-10T04:32:47.013Z,13.44
2022-08-10T04:35:16.236Z,13.50
2022-08-10T04:37:47.113Z,13.53
2022-08-10T04:40:29.447Z,13.64
2022-08-10T04:43:11.646Z,13.74
2022-08-10T04:45:48.612Z,13.95
2022-08-10T04:48:42.020Z,14.07
2022-08-10T04:51:07.875Z,14.35
2022-08-10T04:54:03.956Z,14.46
2022-08-10T04:56:31.616Z,14.73
2022-08-10T04:58:59.728Z,15.26
2022-08-10T05:01:26.605Z,16.13
2022-08-10T05:04:37.079Z,17.03
2022-08-10T05:06:39.605Z,17.57
2022-08-10T05:09:06.102Z,17.97
2022-08-10T05:11:32.548Z,18.15
2022-08-10T05:13:59.071Z,18.31
2022-08-10T05:16:32.579Z,17.97
2022-08-10T05:18:59.281Z,17.84
2022-08-10T05:22:02.937Z,17.49
2022-08-10T05:24:12.279Z,17.27
2022-08-10T05:27:00.208Z,17.20
2022-08-10T05:29:25.269Z,16.92
2022-08-10T05:31:52.060Z,17.26
2022-08-10T05:34:20.667Z,18.15
2022-08-10T05:36:48.322Z,19.44
2022-08-10T05:39:15.196Z,20.82
2022-08-10T05:41:46.096Z,21.91
2022-08-10T05:44:14.602Z,22.77
2022-08-10T05:46:41.499Z,23.42
2022-08-10T05:49:08.030Z,23.51
2022-08-10T05:51:34.568Z,23.85
2022-08-10T05:54:06.724Z,23.63
2022-08-10T05:56:56.259Z,24.06
2022-08-10T06:00:11.096Z,24.76
2022-08-10T06:02:32.754Z,25.01
2022-08-10T06:05:06.207Z,25.02
2022-08-10T06:07:34.677Z,25.87
2022-08-10T06:10:02.638Z,26.33
2022-08-10T06:12:54.329Z,25.36
2022-08-10T06:15:21.425Z,25.97
2022-08-10T06:17:59.135Z,25.40
2022-08-10T06:20:34.002Z,25.90
2022-08-10T06:23:04.154Z,25.59
2022-08-10T06:26:10.103Z,26.34
2022-08-10T06:28:19.068Z,25.65
2022-08-10T06:30:47.440Z,25.84
2022-08-10T06:33:14.830Z,26.49
2022-08-10T06:35:42.564Z,25.61
2022-08-10T06:38:10.943Z,25.58
2022-08-10T06:40:43.662Z,25.93
2022-08-10T06:43:14.766Z,26.08
2022-08-10T06:45:47.531Z,24.88
2022-08-10T06:48:38.988Z,25.15
2022-08-10T06:51:06.959Z,26.01
2022-08-10T06:53:53.359Z,25.82
2022-08-10T06:56:35.724Z,26.12
2022-08-10T06:59:22.814Z,25.95
2022-08-10T07:01:54.483Z,26.29
2022-08-10T07:04:33.693Z,26.44
2022-08-10T07:07:06.448Z,25.84
2022-08-10T07:09:36.184Z,24.70
2022-08-10T07:12:07.875Z,25.79
2022-08-10T07:14:41.242Z,26.53
2022-08-10T07:17:15.718Z,27.05
2022-08-10T07:19:49.524Z,25.71
2022-08-10T07:23:08.670Z,26.05
2022-08-10T07:25:07.269Z,27.66
2022-08-10T07:27:58.361Z,26.60
2022-08-10T07:30:21.845Z,26.83
2022-08-10T07:32:50.938Z,26.26
2022-08-10T07:35:19.287Z,26.64
2022-08-10T07:37:48.090Z,25.22
2022-08-10T07:40:17.707Z,26.70
2022-08-10T07:42:47.253Z,26.22
2022-08-10T07:45:14.061Z,26.80
2022-08-10T07:47:54.381Z,25.56
2022-08-10T07:50:25.537Z,26.26
2022-08-10T07:52:55.224Z,26.60
2022-08-10T07:56:05.543Z,27.34
2022-08-10T07:58:11.471Z,27.52
2022-08-10T08:00:39.755Z,26.38
2022-08-10T08:03:09.353Z,25.85
2022-08-10T08:05:57.673Z,27.22
2022-08-10T08:08:24.115Z,26.93
2022-08-10T08:10:51.916Z,27.00
2022-08-10T08:13:21.325Z,27.03
2022-08-10T08:16:21.124Z,28.38
2022-08-10T08:18:37.727Z,27.09
2022-08-10T08:24:02.738Z,26.46
2022-08-10T08:24:09.605Z,25.53
2022-08-10T08:26:40.903Z,27.23
2022-08-10T08:29:10.830Z,27.06
2022-08-10T08:31:38.195Z,25.79
2022-08-10T08:34:25.487Z,26.21
2022-08-10T08:36:57.353Z,26.90
2022-08-10T08:39:25.833Z,26.53
2022-08-10T08:42:29.643Z,26.78
2022-08-10T08:45:08.403Z,25.41
2022-08-10T08:48:06.510Z,25.05
2022-08-10T08:50:48.376Z,25.24
2022-08-10T08:54:03.160Z,24.77
2022-08-10T08:56:34.482Z,24.86
2022-08-10T08:59:03.648Z,24.43
2022-08-10T09:01:45.501Z,25.88
2022-08-10T09:04:19.904Z,25.03
2022-08-10T09:07:03.224Z,24.84
2022-08-10T09:09:37.395Z,24.69
2022-08-10T09:12:32.874Z,24.79
2022-08-10T09:15:04.618Z,24.51
2022-08-10T09:18:05.139Z,25.29
2022-08-10T09:20:53.741Z,24.57
2022-08-10T09:24:05.380Z,24.53
2022-08-10T09:26:20.666Z,24.78
2022-08-10T09:29:11.500Z,24.78
2022-08-10T09:32:52.188Z,25.92
2022-08-10T09:36:21.775Z,25.05
2022-08-10T09:38:01.832Z,25.27
2022-08-10T09:41:00.416Z,25.65
2022-08-10T09:43:47.606Z,26.10
2022-08-10T09:47:05.237Z,26.52
2022-08-10T09:49:54.781Z,26.23
2022-08-10T09:52:37.032Z,26.31
2022-08-10T09:55:14.601Z,24.98
2022-08-10T09:57:57.032Z,25.36
2022-08-10T10:00:30.639Z,25.31
2022-08-10T10:03:24.050Z,25.33
2022-08-10T10:06:01.658Z,25.88
2022-08-10T10:08:43.267Z,25.66
2022-08-10T10:11:15.178Z,24.64
2022-08-10T10:14:12.175Z,23.93
2022-08-10T10:16:51.957Z,24.02
2022-08-10T10:20:02.139Z,23.77
2022-08-10T10:23:05.636Z,23.89
2022-08-10T10:25:50.937Z,23.70
2022-08-10T10:29:11.427Z,24.24
2022-08-10T10:31:42.032Z,25.27
2022-08-10T10:34:30.165Z,24.50
2022-08-10T10:36:59.804Z,24.28
2022-08-10T10:39:27.215Z,24.90
2022-08-10T10:42:42.291Z,25.30
2022-08-10T10:45:24.097Z,25.69
2022-08-10T10:48:27.513Z,24.99
2022-08-10T10:51:09.884Z,25.22
2022-08-10T10:53:46.981Z,24.08
2022-08-10T10:56:54.785Z,23.74
2022-08-10T10:59:56.402Z,23.89
2022-08-10T11:02:42.367Z,23.94
2022-08-10T11:05:27.454Z,24.14
2022-08-10T11:08:28.822Z,24.33
2022-08-10T11:12:00.634Z,24.88
2022-08-10T11:14:25.880Z,25.20
2022-08-10T11:17:00.179Z,25.28
2022-08-10T11:20:02.924Z,25.42
2022-08-10T11:22:36.408Z,24.93
2022-08-10T11:25:14.788Z,24.44
2022-08-10T11:28:08.482Z,23.96
2022-08-10T11:31:01.527Z,24.12
2022-08-10T11:34:11.435Z,24.99
2022-08-10T11:36:56.282Z,25.03
2022-08-10T11:39:49.712Z,24.95
2022-08-10T11:42:35.759Z,24.51
2022-08-10T11:45:08.853Z,24.83
2022-08-10T11:47:56.897Z,24.93
2022-08-10T11:50:43.872Z,24.97
2022-08-10T11:53:16.080Z,25.57
2022-08-10T11:55:46.068Z,25.41
2022-08-10T11:58:32.751Z,25.18
2022-08-10T12:01:05.320Z,25.15
2022-08-10T12:03:34.937Z,25.21
2022-08-10T12:06:04.330Z,25.07
2022-08-10T12:10:02.306Z,25.32
2022-08-10T12:11:25.324Z,25.22
2022-08-10T12:14:24.627Z,24.74
2022-08-10T12:17:03.357Z,24.91
2022-08-10T12:20:02.653Z,25.15
2022-08-10T12:22:36.199Z,25.39
2022-08-10T12:25:07.471Z,25.67
2022-08-10T12:27:44.708Z,25.25
2022-08-10T12:30:15.045Z,25.37
2022-08-10T12:33:02.196Z,25.29
2022-08-10T12:36:14.813Z,25.76
2022-08-10T12:38:46.377Z,25.92
2022-08-10T12:41:44.883Z,25.57
2022-08-10T12:44:22.403Z,25.67
2022-08-10T12:46:48.816Z,25.40
2022-08-10T12:49:32.085Z,25.73
2022-08-10T12:52:37.155Z,26.12
2022-08-10T12:55:05.446Z,25.85
2022-08-10T12:57:36.272Z,25.56
2022-08-10T13:00:05.459Z,25.56
2022-08-10T13:02:42.993Z,25.44
2022-08-10T13:05:14.886Z,25.42
2022-08-10T13:08:03.837Z,25.68
2022-08-10T13:10:32.256Z,25.66
2022-08-10T13:13:00.863Z,25.63
2022-08-10T13:15:48.323Z,26.20
2022-08-10T13:18:23.128Z,25.87
2022-08-10T13:20:54.875Z,25.83
2022-08-10T13:23:27.081Z,25.62
2022-08-10T13:25:56.830Z,25.82
2022-08-10T13:28:37.606Z,25.60
2022-08-10T13:31:16.837Z,25.39
2022-08-10T13:34:35.879Z,25.83
2022-08-10T13:36:46.953Z,25.87
2022-08-10T13:39:17.245Z,26.00
2022-08-10T13:41:46.883Z,26.03
2022-08-10T13:44:17.634Z,25.10
2022-08-10T13:46:52.410Z,25.50
2022-08-10T13:49:21.649Z,25.51
2022-08-10T13:51:57.221Z,25.84
2022-08-10T13:54:28.056Z,25.49
2022-08-10T13:56:56.739Z,25.28
2022-08-10T14:00:34.192Z,25.93
2022-08-10T14:02:17.466Z,25.68
2022-08-10T14:04:46.405Z,25.91
2022-08-10T14:07:14.147Z,25.78
2022-08-10T14:09:43.398Z,25.57
2022-08-10T14:12:12.260Z,25.79
2022-08-10T14:14:40.355Z,25.63
2022-08-10T14:17:07.848Z,25.65
2022-08-10T14:19:39.361Z,25.29
2022-08-10T14:22:09.925Z,25.15
2022-08-10T14:24:36.557Z,25.31
2022-08-10T14:27:08.740Z,25.05
2022-08-10T14:29:43.120Z,25.53
2022-08-10T14:32:12.090Z,25.47
2022-08-10T14:36:16.225Z,25.48
2022-08-10T14:37:38.152Z,25.89
2022-08-10T14:40:08.445Z,25.66
2022-08-10T14:42:45.910Z,25.97
2022-08-10T14:45:22.336Z,25.70
2022-08-10T14:48:03.359Z,25.69
2022-08-10T14:50:33.513Z,25.48
2022-08-10T14:53:34.367Z,25.95
2022-08-10T14:56:06.047Z,25.89
2022-08-10T14:58:38.877Z,25.47
2022-08-10T15:01:25.755Z,25.68
2022-08-10T15:04:14.319Z,25.86
2022-08-10T15:06:54.071Z,25.64
2022-08-10T15:09:24.271Z,25.36
2022-08-10T15:12:14.761Z,25.22
2022-08-10T15:14:45.781Z,25.38
2022-08-10T15:17:16.342Z,25.20
2022-08-10T15:20:02.803Z,25.31
2022-08-10T15:22:37.544Z,25.25
2022-08-10T15:25:19.022Z,25.13
2022-08-10T15:27:55.920Z,25.18
2022-08-10T15:30:32.651Z,25.24
2022-08-10T15:33:57.489Z,25.14
2022-08-10T15:36:29.737Z,24.92
2022-08-10T15:39:17.225Z,24.97
2022-08-10T15:42:05.540Z,24.90
2022-08-10T15:44:41.353Z,24.79
2022-08-10T15:47:24.990Z,24.84
2022-08-10T15:50:28.033Z,24.75
2022-08-10T15:53:22.406Z,24.74
2022-08-10T15:55:58.671Z,24.45
2022-08-10T15:58:39.992Z,24.30
2022-08-10T16:02:13.608Z,24.37
2022-08-10T16:04:36.697Z,24.53
2022-08-10T16:07:15.528Z,24.57
2022-08-10T16:10:22.197Z,24.50
2022-08-10T16:12:59.761Z,24.33
2022-08-10T16:15:29.068Z,24.27
2022-08-10T16:18:08.449Z,24.40
2022-08-10T16:20:54.696Z,24.25
2022-08-10T16:23:43.377Z,24.36
2022-08-10T16:26:15.506Z,24.25
2022-08-10T16:28:49.329Z,24.08
2022-08-10T16:31:20.818Z,24.11
2022-08-10T16:33:55.174Z,23.96
2022-08-10T16:36:28.834Z,24.06
2022-08-10T16:38:56.843Z,24.02
2022-08-10T16:42:03.232Z,24.01
2022-08-10T16:44:18.073Z,23.85
2022-08-10T16:46:46.349Z,23.75
2022-08-10T16:49:15.772Z,23.86
2022-08-10T16:51:47.718Z,23.81
2022-08-10T16:54:22.407Z,23.73
2022-08-10T16:56:52.818Z,23.60
2022-08-10T16:59:24.337Z,23.55
2022-08-10T17:01:53.926Z,23.44
2022-08-10T17:04:23.278Z,23.47
2022-08-10T17:06:56.826Z,23.43
2022-08-10T17:09:31.781Z,23.32
2022-08-10T17:12:03.296Z,23.29
2022-08-10T17:14:30.833Z,23.13
2022-08-10T17:17:02.210Z,23.15
2022-08-10T17:19:31.583Z,23.10
2022-08-10T17:22:02.283Z,23.01
2022-08-10T17:24:32.898Z,23.01
2022-08-10T17:28:05.883Z,22.92
2022-08-10T17:30:03.651Z,22.80
2022-08-10T17:32:48.788Z,22.70
2022-08-10T17:35:23.844Z,22.59
2022-08-10T17:38:03.287Z,22.48
2022-08-10T17:40:31.253Z,22.43
2022-08-10T17:43:00.490Z,22.36
2022-08-10T17:45:48.594Z,22.26
2022-08-10T17:48:18.819Z,22.19
2022-08-10T17:50:50.134Z,22.05
2022-08-10T17:53:21.478Z,21.91
2022-08-10T17:55:53.496Z,21.96
2022-08-10T17:58:21.883Z,22.05
2022-08-10T18:00:57.508Z,21.98
2022-08-10T18:03:48.887Z,21.72
2022-08-10T18:06:16.512Z,21.76
2022-08-10T18:08:48.130Z,21.63
2022-08-10T18:11:19.836Z,21.55
2022-08-10T18:13:55.952Z,21.34
2022-08-10T18:16:26.206Z,21.28
2022-08-10T18:19:00.724Z,21.36
2022-08-10T18:21:30.643Z,21.17
2022-08-10T18:24:06.617Z,21.06
2022-08-10T18:26:38.291Z,21.04
2022-08-10T18:29:12.567Z,21.01
2022-08-10T18:31:43.719Z,20.91
2022-08-10T18:34:12.935Z,20.86
2022-08-10T18:36:43.896Z,20.89
2022-08-10T18:39:15.649Z,20.82
2022-08-10T18:42:00.379Z,20.75
2022-08-10T18:44:36.157Z,20.60
2022-08-10T18:47:16.414Z,20.55
2022-08-10T18:49:55.005Z,20.34
2022-08-10T18:52:25.105Z,20.31
2022-08-10T18:54:58.519Z,20.29
2022-08-10T18:57:58.138Z,20.19
2022-08-10T19:00:51.598Z,20.09
2022-08-10T19:03:53.840Z,20.03
2022-08-10T19:06:45.053Z,20.13
2022-08-10T19:09:50.201Z,20.07
2022-08-10T19:12:41.937Z,20.02
2022-08-10T19:15:20.684Z,20.02
2022-08-10T19:18:25.997Z,19.85
2022-08-10T19:20:58.067Z,19.70
2022-08-10T19:23:39.349Z,19.65
2022-08-10T19:26:41.586Z,19.52
2022-08-10T19:30:09.001Z,19.55
2022-08-10T19:32:37.356Z,19.36
2022-08-10T19:36:03.305Z,19.24
2022-08-10T19:38:49.385Z,19.23
2022-08-10T19:41:44.663Z,19.34
2022-08-10T19:44:48.406Z,19.32
2022-08-10T19:47:44.973Z,19.15
2022-08-10T19:50:14.715Z,19.02
2022-08-10T19:53:09.128Z,19.06
2022-08-10T19:56:18.459Z,19.00
2022-08-10T20:00:16.275Z,18.90
2022-08-10T20:02:17.384Z,18.88
2022-08-10T20:04:59.457Z,18.81
2022-08-10T20:07:47.155Z,18.71
2022-08-10T20:10:23.348Z,18.74
2022-08-10T20:12:58.770Z,18.67
2022-08-10T20:15:41.580Z,18.63
2022-08-10T20:18:25.962Z,18.57
2022-08-10T20:21:12.226Z,18.60
2022-08-10T20:23:55.056Z,18.54
2022-08-10T20:26:27.169Z,18.49
2022-08-10T20:29:57.967Z,18.48
2022-08-10T20:32:26.391Z,18.28
2022-08-10T20:35:21.931Z,18.20
2022-08-10T20:38:04.548Z,18.14
2022-08-10T20:41:07.141Z,18.10
2022-08-10T20:44:02.756Z,18.04
2022-08-10T20:46:42.959Z,18.01
2022-08-10T20:49:18.394Z,17.78
2022-08-10T20:52:00.297Z,17.67
2022-08-10T20:54:34.934Z,17.75
2022-08-10T20:57:54.076Z,17.72
2022-08-10T21:00:15.629Z,17.64
2022-08-10T21:02:56.672Z,17.57
2022-08-10T21:05:29.691Z,17.63
2022-08-10T21:08:14.755Z,17.61
2022-08-10T21:10:56.272Z,17.50
2022-08-10T21:13:50.058Z,17.46
2022-08-10T21:16:41.372Z,17.43
2022-08-10T21:19:35.576Z,17.43
2022-08-10T21:22:15.668Z,17.33
2022-08-10T21:24:58.300Z,17.32
2022-08-10T21:27:35.387Z,17.30
2022-08-10T21:30:11.075Z,17.29
2022-08-10T21:32:40.658Z,17.26
2022-08-10T21:35:37.071Z,17.22
2022-08-10T21:38:31.187Z,17.28
2022-08-10T21:41:57.281Z,17.25
2022-08-10T21:44:49.247Z,17.25
2022-08-10T21:48:07.236Z,17.21
2022-08-10T21:51:16.393Z,17.18
2022-08-10T21:54:22.785Z,17.03
2022-08-10T21:57:43.442Z,16.99
2022-08-10T22:00:32.417Z,16.95
2022-08-10T22:03:21.239Z,16.98
2022-08-10T22:06:10.148Z,16.97
2022-08-10T22:09:02.603Z,16.93
2022-08-10T22:11:57.666Z,17.01
2022-08-10T22:14:54.645Z,16.94
2022-08-10T22:18:03.706Z,16.94
2022-08-10T22:20:54.661Z,16.85
2022-08-10T22:23:40.540Z,16.79
2022-08-10T22:27:01.320Z,16.69
2022-08-10T22:29:56.083Z,16.75
2022-08-10T22:32:53.508Z,16.74
2022-08-10T22:36:15.069Z,16.63
2022-08-10T22:40:11.137Z,16.59
2022-08-10T22:42:59.370Z,16.61
2022-08-10T22:45:56.362Z,16.39
2022-08-10T22:48:41.675Z,16.39
2022-08-10T22:51:17.369Z,16.35
2022-08-10T22:54:31.025Z,16.35
2022-08-10T22:57:19.750Z,16.31
2022-08-10T22:59:47.007Z,16.29
2022-08-10T23:02:34.237Z,16.24
2022-08-10T23:05:14.661Z,16.29
2022-08-10T23:07:49.380Z,16.28
2022-08-10T23:10:20.173Z,16.25
2022-08-10T23:13:07.612Z,16.35
2022-08-10T23:15:56.376Z,16.33
2022-08-10T23:18:56.530Z,16.34
2022-08-10T23:22:00.164Z,16.33
2022-08-10T23:24:24.008Z,16.31
2022-08-10T23:26:53.316Z,16.25
2022-08-10T23:29:23.405Z,16.23
2022-08-10T23:32:06.735Z,16.20
2022-08-10T23:34:36.061Z,16.26
2022-08-10T23:37:05.833Z,16.20
2022-08-10T23:39:38.308Z,16.30
2022-08-10T23:42:08.920Z,16.34
2022-08-10T23:44:41.593Z,16.24
2022-08-10T23:47:10.012Z,16.29
2022-08-10T23:49:38.372Z,16.15
2022-08-10T23:52:33.342Z,16.23
2022-08-10T23:55:04.850Z,16.17
2022-08-10T23:57:35.030Z,16.26
